Terminal Aerodrome Forecast
Issued by NWS

Home | Current Version | Previous Version | Text Only | Print | Product List | Glossary On
Versions: 1 2 3 4 5 6 7 8 9 10 11 12 13 14
000
FTUS43 KABR 061700
TAFMBG
TAF
KMBG 061731Z 0618/0718 27006KT P6SM SKC
     FM070500 31011KT P6SM BKN050
     FM071100 32006KT P6SM OVC010
     FM071700 32007KT P6SM OVC050=

USA.gov is the U.S. government's official web portal to all federal, state and local government web resources and services.